createdAt,value
2018-05-16T00:01:41.712Z,62.00
2018-05-16T00:04:12.745Z,62.23
2018-05-16T00:06:43.745Z,62.25
2018-05-16T00:09:14.737Z,62.13
2018-05-16T00:11:45.720Z,62.00
2018-05-16T00:14:16.731Z,61.84
2018-05-16T00:16:47.710Z,61.93
2018-05-16T00:19:18.772Z,62.03
2018-05-16T00:21:49.760Z,62.31
2018-05-16T00:24:20.775Z,62.57
2018-05-16T00:26:51.760Z,62.66
2018-05-16T00:29:22.824Z,62.82
2018-05-16T00:31:53.802Z,63.18
2018-05-16T00:34:24.795Z,63.39
2018-05-16T00:36:55.794Z,63.65
2018-05-16T00:39:26.820Z,64.03
2018-05-16T00:41:57.811Z,64.18
2018-05-16T00:44:28.828Z,64.55
2018-05-16T00:46:59.849Z,64.47
2018-05-16T00:49:30.854Z,64.17
2018-05-16T00:52:01.861Z,64.14
2018-05-16T00:54:32.878Z,64.13
2018-05-16T00:57:03.869Z,63.98
2018-05-16T00:59:34.911Z,63.92
2018-05-16T01:02:05.856Z,63.76
2018-05-16T01:04:36.853Z,63.54
2018-05-16T01:07:07.855Z,63.47
2018-05-16T01:09:38.853Z,63.32
2018-05-16T01:12:09.847Z,63.19
2018-05-16T01:14:40.854Z,62.94
2018-05-16T01:17:11.845Z,62.75
2018-05-16T01:19:42.858Z,62.75
2018-05-16T01:22:13.846Z,62.76
2018-05-16T01:24:44.872Z,62.87
2018-05-16T01:27:15.879Z,62.93
2018-05-16T01:29:46.915Z,63.13
2018-05-16T01:32:17.950Z,63.02
2018-05-16T01:34:48.949Z,63.03
2018-05-16T01:37:19.925Z,62.99
2018-05-16T01:39:50.987Z,62.97
2018-05-16T01:42:21.934Z,62.99
2018-05-16T01:44:52.929Z,63.12
2018-05-16T01:47:23.922Z,63.09
2018-05-16T01:49:54.942Z,63.03
2018-05-16T01:52:25.938Z,62.96
2018-05-16T01:54:56.991Z,63.07
2018-05-16T01:57:28.008Z,63.01
2018-05-16T01:59:59.018Z,62.97
2018-05-16T02:02:29.982Z,63.08
2018-05-16T02:05:00.989Z,63.04
2018-05-16T02:07:31.960Z,62.92
2018-05-16T02:10:03.042Z,62.96
2018-05-16T02:12:34.053Z,62.84
2018-05-16T02:15:05.101Z,62.75
2018-05-16T02:17:36.082Z,62.52
2018-05-16T02:20:07.112Z,62.54
2018-05-16T02:22:38.110Z,62.62
2018-05-16T02:25:09.089Z,62.76
2018-05-16T02:27:40.097Z,62.76
2018-05-16T02:30:11.098Z,62.98
2018-05-16T02:32:42.151Z,63.30
2018-05-16T02:35:13.101Z,63.37
2018-05-16T02:37:44.102Z,63.67
2018-05-16T02:40:15.100Z,63.80
2018-05-16T02:42:46.131Z,63.87
2018-05-16T02:45:17.094Z,63.96
2018-05-16T02:47:48.126Z,64.09
2018-05-16T02:50:19.132Z,63.95
2018-05-16T02:52:50.187Z,64.01
2018-05-16T02:55:21.160Z,63.93
2018-05-16T02:57:52.161Z,63.84
2018-05-16T03:00:23.173Z,64.23
2018-05-16T03:02:54.162Z,64.04
2018-05-16T03:05:25.156Z,63.87
2018-05-16T03:07:56.192Z,63.64
2018-05-16T03:10:27.168Z,63.12
2018-05-16T03:12:58.179Z,62.79
2018-05-16T03:15:29.161Z,62.65
2018-05-16T03:18:00.227Z,62.46
2018-05-16T03:20:31.240Z,62.27
2018-05-16T03:23:02.265Z,62.15
2018-05-16T03:25:33.243Z,62.17
2018-05-16T03:28:04.267Z,62.03
2018-05-16T03:30:35.216Z,62.11
2018-05-16T03:33:06.213Z,62.15
2018-05-16T03:35:37.196Z,62.16
2018-05-16T03:38:08.237Z,62.25
2018-05-16T03:40:39.242Z,62.16
2018-05-16T03:43:10.226Z,62.36
2018-05-16T03:45:41.197Z,62.71
2018-05-16T03:48:12.249Z,62.67
2018-05-16T03:50:43.250Z,62.53
2018-05-16T03:53:14.253Z,62.73
2018-05-16T03:55:45.258Z,62.87
2018-05-16T03:58:28.425Z,62.87
2018-05-16T04:01:11.624Z,62.84
2018-05-16T04:03:54.878Z,62.95
2018-05-16T04:06:25.850Z,62.94
2018-05-16T04:08:56.863Z,63.23
2018-05-16T04:11:27.879Z,62.87
2018-05-16T04:13:58.904Z,62.96
2018-05-16T04:16:29.880Z,63.23
2018-05-16T04:19:00.876Z,63.59
2018-05-16T04:21:31.817Z,63.64
2018-05-16T04:24:02.828Z,63.56
2018-05-16T04:26:33.913Z,63.36
2018-05-16T04:29:04.937Z,63.49
2018-05-16T04:31:35.920Z,63.75
2018-05-16T04:34:06.992Z,63.74
2018-05-16T04:36:38.007Z,63.52
2018-05-16T04:39:08.993Z,63.45
2018-05-16T04:41:40.049Z,63.21
2018-05-16T04:44:11.070Z,63.16
2018-05-16T04:46:42.028Z,63.22
2018-05-16T04:49:13.050Z,63.28
2018-05-16T04:51:44.046Z,63.22
2018-05-16T04:54:15.103Z,63.13
2018-05-16T04:56:46.151Z,63.15
2018-05-16T04:59:17.159Z,62.90
2018-05-16T05:01:48.178Z,62.62
2018-05-16T05:04:19.168Z,62.12
2018-05-16T05:06:50.132Z,61.93
2018-05-16T05:09:21.134Z,61.72
2018-05-16T05:11:52.131Z,61.52
2018-05-16T05:14:23.134Z,61.46
2018-05-16T05:16:54.128Z,61.42
2018-05-16T05:19:25.126Z,61.31
2018-05-16T05:21:56.136Z,61.31
2018-05-16T05:24:27.154Z,61.19
2018-05-16T05:26:58.193Z,61.05
2018-05-16T05:29:29.175Z,61.01
2018-05-16T05:32:00.195Z,61.03
2018-05-16T05:34:31.161Z,60.86
2018-05-16T05:37:02.198Z,60.93
2018-05-16T05:39:33.246Z,60.71
2018-05-16T05:42:04.229Z,60.59
2018-05-16T05:44:35.253Z,60.50
2018-05-16T05:47:06.246Z,60.09
2018-05-16T05:49:37.249Z,59.87
2018-05-16T05:52:08.291Z,59.34
2018-05-16T05:54:39.280Z,59.13
2018-05-16T05:57:10.270Z,58.81
2018-05-16T05:59:41.244Z,58.40
2018-05-16T06:02:12.252Z,58.34
2018-05-16T06:04:43.284Z,58.06
2018-05-16T06:07:14.303Z,57.79
2018-05-16T06:09:45.290Z,57.38
2018-05-16T06:12:16.320Z,57.25
2018-05-16T06:14:47.330Z,57.00
2018-05-16T06:17:18.318Z,56.53
2018-05-16T06:19:49.344Z,56.34
2018-05-16T06:22:20.310Z,55.96
2018-05-16T06:24:51.320Z,55.59
2018-05-16T06:27:22.383Z,55.36
2018-05-16T06:29:53.712Z,55.02
2018-05-16T06:32:24.746Z,54.67
2018-05-16T06:34:55.762Z,54.28
2018-05-16T06:37:26.841Z,54.20
2018-05-16T06:39:57.815Z,54.31
2018-05-16T06:42:28.833Z,54.44
2018-05-16T06:44:59.848Z,54.00
2018-05-16T06:47:30.877Z,53.77
2018-05-16T06:50:01.888Z,54.14
2018-05-16T06:52:32.927Z,54.27
2018-05-16T06:55:03.985Z,54.01
2018-05-16T06:57:35.017Z,53.13
2018-05-16T07:00:06.026Z,52.59
2018-05-16T07:02:37.030Z,52.75
2018-05-16T07:05:08.041Z,53.19
2018-05-16T07:07:39.022Z,53.78
2018-05-16T07:10:09.972Z,54.01
2018-05-16T07:12:40.992Z,54.08
2018-05-16T07:15:11.969Z,54.33
2018-05-16T07:17:42.999Z,53.74
2018-05-16T07:20:14.007Z,53.17
2018-05-16T07:22:45.039Z,52.46
2018-05-16T07:25:16.072Z,51.88
2018-05-16T07:27:47.037Z,51.58
2018-05-16T07:30:18.033Z,51.35
2018-05-16T07:32:49.053Z,51.04
2018-05-16T07:35:20.151Z,51.12
2018-05-16T07:37:51.171Z,51.88
2018-05-16T07:40:22.206Z,52.55
2018-05-16T07:42:53.204Z,52.86
2018-05-16T07:45:24.220Z,53.19
2018-05-16T07:47:55.208Z,53.76
2018-05-16T07:50:26.227Z,54.39
2018-05-16T07:52:57.307Z,54.97
2018-05-16T07:55:28.270Z,55.20
2018-05-16T07:57:59.298Z,55.19
2018-05-16T08:00:30.271Z,54.71
2018-05-16T08:03:01.286Z,54.25
2018-05-16T08:05:32.276Z,53.69
2018-05-16T08:08:03.319Z,52.51
2018-05-16T08:10:34.307Z,51.64
2018-05-16T08:13:05.356Z,50.77
2018-05-16T08:15:36.351Z,49.99
2018-05-16T08:18:07.335Z,49.79
2018-05-16T08:20:38.405Z,50.18
2018-05-16T08:23:09.355Z,50.45
2018-05-16T08:25:40.430Z,50.50
2018-05-16T08:28:11.461Z,50.80
2018-05-16T08:30:49.485Z,50.91
2018-05-16T08:33:20.432Z,51.09
2018-05-16T08:35:51.489Z,51.34
2018-05-16T08:38:22.541Z,51.21
2018-05-16T08:40:53.521Z,50.77
2018-05-16T08:43:24.533Z,51.41
2018-05-16T08:45:55.548Z,51.52
2018-05-16T08:48:26.606Z,51.37
2018-05-16T08:50:57.573Z,51.28
2018-05-16T08:53:28.576Z,51.24
2018-05-16T08:55:59.588Z,51.36
2018-05-16T08:58:30.604Z,50.80
2018-05-16T09:01:01.584Z,50.48
2018-05-16T09:03:32.620Z,50.47
2018-05-16T09:06:03.642Z,50.53
2018-05-16T09:08:34.602Z,50.31
2018-05-16T09:11:05.603Z,50.65
2018-05-16T09:13:36.562Z,50.41
2018-05-16T09:16:07.602Z,49.81
2018-05-16T09:18:38.618Z,49.59
2018-05-16T09:21:09.596Z,49.49
2018-05-16T09:23:40.606Z,49.15
2018-05-16T09:26:11.598Z,48.96
2018-05-16T09:28:42.607Z,48.93
2018-05-16T09:31:13.573Z,48.51
2018-05-16T09:33:44.612Z,48.32
2018-05-16T09:36:15.582Z,48.81
2018-05-16T09:38:46.573Z,47.90
2018-05-16T09:41:17.556Z,46.20
2018-05-16T09:43:48.570Z,45.45
2018-05-16T09:46:19.732Z,44.66
2018-05-16T09:48:50.759Z,44.47
2018-05-16T09:51:21.898Z,44.02
2018-05-16T09:53:52.889Z,43.30
2018-05-16T09:56:23.973Z,43.86
2018-05-16T09:58:54.947Z,44.60
2018-05-16T10:01:25.960Z,44.60
2018-05-16T10:03:56.996Z,44.21
2018-05-16T10:06:28.023Z,44.78
2018-05-16T10:08:59.028Z,45.32
2018-05-16T10:11:30.162Z,45.99
2018-05-16T10:14:01.137Z,46.29
2018-05-16T10:16:32.166Z,46.77
2018-05-16T10:19:03.194Z,46.78
2018-05-16T10:21:34.213Z,45.96
2018-05-16T10:24:05.265Z,45.96
2018-05-16T10:26:36.232Z,44.17
2018-05-16T10:29:07.226Z,45.15
2018-05-16T10:31:38.194Z,43.95
2018-05-16T10:34:09.211Z,44.23
2018-05-16T10:36:40.172Z,44.18
2018-05-16T10:39:11.223Z,44.56
2018-05-16T10:41:42.210Z,44.66
2018-05-16T10:44:13.236Z,45.15
2018-05-16T10:46:44.264Z,45.50
2018-05-16T10:49:15.266Z,45.49
2018-05-16T10:51:46.280Z,45.51
2018-05-16T10:54:17.269Z,45.42
2018-05-16T10:56:48.262Z,43.96
2018-05-16T10:59:19.272Z,44.01
2018-05-16T11:01:50.255Z,43.94
2018-05-16T11:04:21.228Z,44.18
2018-05-16T11:06:52.227Z,44.17
2018-05-16T11:09:23.257Z,43.75
2018-05-16T11:11:54.309Z,42.66
2018-05-16T11:14:25.298Z,42.54
2018-05-16T11:16:56.322Z,41.53
2018-05-16T11:19:27.297Z,40.04
2018-05-16T11:21:58.300Z,37.51
2018-05-16T11:24:29.304Z,37.11
2018-05-16T11:27:00.318Z,36.10
2018-05-16T11:29:31.303Z,37.29
2018-05-16T11:32:02.332Z,37.82
2018-05-16T11:34:33.318Z,38.15
2018-05-16T11:37:04.366Z,38.58
2018-05-16T11:39:35.327Z,38.02
2018-05-16T11:42:06.330Z,37.03
2018-05-16T11:44:37.321Z,36.35
2018-05-16T11:47:08.331Z,35.37
2018-05-16T11:49:39.352Z,34.64
2018-05-16T11:52:10.334Z,33.07
2018-05-16T11:54:41.356Z,31.23
2018-05-16T11:57:12.330Z,30.62
2018-05-16T11:59:43.367Z,30.61
2018-05-16T12:02:14.378Z,29.33
2018-05-16T12:04:45.383Z,29.12
2018-05-16T12:07:16.394Z,29.42
2018-05-16T12:09:47.391Z,28.79
2018-05-16T12:12:18.386Z,28.19
2018-05-16T12:14:49.455Z,28.40
2018-05-16T12:17:20.451Z,28.09
2018-05-16T12:19:51.439Z,27.75
2018-05-16T12:22:22.410Z,27.85
2018-05-16T12:24:53.391Z,27.54
2018-05-16T12:27:24.412Z,28.00
2018-05-16T12:29:55.492Z,29.44
2018-05-16T12:32:26.457Z,30.41
2018-05-16T12:34:57.427Z,31.09
2018-05-16T12:37:28.473Z,31.75
2018-05-16T12:39:59.466Z,31.85
2018-05-16T12:42:30.463Z,30.30
2018-05-16T12:45:01.462Z,29.12
2018-05-16T12:47:32.456Z,28.56
2018-05-16T12:50:03.490Z,28.59
2018-05-16T12:52:34.503Z,28.39
2018-05-16T12:55:05.504Z,28.62
2018-05-16T12:57:36.449Z,29.19
2018-05-16T13:00:07.476Z,29.82
2018-05-16T13:02:38.462Z,29.82
2018-05-16T13:05:09.469Z,30.26
2018-05-16T13:07:40.435Z,30.87
2018-05-16T13:10:11.492Z,31.84
2018-05-16T13:12:42.494Z,33.16
2018-05-16T13:15:13.507Z,39.02
2018-05-16T13:17:44.582Z,47.11
2018-05-16T13:20:15.586Z,52.75
2018-05-16T13:22:46.582Z,55.10
2018-05-16T13:25:17.618Z,57.38
2018-05-16T13:27:48.617Z,58.94
2018-05-16T13:30:19.622Z,59.37
2018-05-16T13:32:50.598Z,58.66
2018-05-16T13:35:21.634Z,58.66
2018-05-16T13:37:52.581Z,59.09
2018-05-16T13:40:23.684Z,60.36
2018-05-16T13:42:54.664Z,59.69
2018-05-16T13:45:25.631Z,60.41
2018-05-16T13:47:56.616Z,60.67
2018-05-16T13:50:27.562Z,60.44
2018-05-16T13:52:58.559Z,60.58
2018-05-16T13:55:29.572Z,60.04
2018-05-16T13:58:00.590Z,59.56
2018-05-16T14:00:31.563Z,58.43
2018-05-16T14:03:02.608Z,58.18
2018-05-16T14:05:33.669Z,57.40
2018-05-16T14:08:04.684Z,58.11
2018-05-16T14:10:35.697Z,57.88
2018-05-16T14:13:06.715Z,57.87
2018-05-16T14:15:37.752Z,57.61
2018-05-16T14:18:08.705Z,57.02
2018-05-16T14:20:39.738Z,57.05
2018-05-16T14:23:10.762Z,56.96
2018-05-16T14:25:41.794Z,56.72
2018-05-16T14:28:12.852Z,56.87
2018-05-16T14:30:43.947Z,56.66
2018-05-16T14:33:14.967Z,55.47
2018-05-16T14:35:45.982Z,55.16
2018-05-16T14:38:16.970Z,54.74
2018-05-16T14:40:48.011Z,53.74
2018-05-16T14:43:19.022Z,53.63
2018-05-16T14:45:50.028Z,52.72
2018-05-16T14:48:20.990Z,51.61
2018-05-16T14:50:52.009Z,50.73
2018-05-16T14:53:23.036Z,50.58
2018-05-16T14:55:54.054Z,50.04
2018-05-16T14:58:25.047Z,50.42
2018-05-16T15:00:56.218Z,50.37
2018-05-16T15:03:27.199Z,49.95
2018-05-16T15:05:58.276Z,49.04
2018-05-16T15:08:29.230Z,48.54
2018-05-16T15:11:00.272Z,47.99
2018-05-16T15:13:31.258Z,47.71
2018-05-16T15:16:02.266Z,46.60
2018-05-16T15:18:33.250Z,45.75
2018-05-16T15:21:04.265Z,45.06
2018-05-16T15:23:35.266Z,45.17
2018-05-16T15:26:06.399Z,45.75
2018-05-16T15:28:37.371Z,46.97
2018-05-16T15:31:08.377Z,47.55
2018-05-16T15:33:39.343Z,47.67
2018-05-16T15:36:10.394Z,46.56
2018-05-16T15:38:41.402Z,45.21
2018-05-16T15:41:12.413Z,44.57
2018-05-16T15:43:43.471Z,43.97
2018-05-16T15:46:14.491Z,43.43
2018-05-16T15:48:45.537Z,42.97
2018-05-16T15:51:16.522Z,43.66
2018-05-16T15:53:47.552Z,44.85
2018-05-16T15:56:18.519Z,45.40
2018-05-16T15:58:49.547Z,46.39
2018-05-16T16:01:20.602Z,47.44
2018-05-16T16:03:51.647Z,49.07
2018-05-16T16:06:22.614Z,50.36
2018-05-16T16:08:53.621Z,51.34
2018-05-16T16:11:24.618Z,52.48
2018-05-16T16:13:55.723Z,52.54
2018-05-16T16:16:26.696Z,52.83
2018-05-16T16:18:57.896Z,53.15
2018-05-16T16:21:28.915Z,53.24
2018-05-16T16:23:59.935Z,53.40
2018-05-16T16:26:30.930Z,53.06
2018-05-16T16:29:01.964Z,52.70
2018-05-16T16:31:32.987Z,52.40
2018-05-16T16:34:04.060Z,51.79
2018-05-16T16:36:35.041Z,51.47
2018-05-16T16:39:06.157Z,51.44
2018-05-16T16:41:37.084Z,51.31
2018-05-16T16:44:08.091Z,51.06
2018-05-16T16:46:39.141Z,50.99
2018-05-16T16:49:10.111Z,50.86
2018-05-16T16:51:41.153Z,51.32
2018-05-16T16:54:12.194Z,51.84
2018-05-16T16:56:43.310Z,52.56
2018-05-16T16:59:14.390Z,53.00
2018-05-16T17:01:45.415Z,53.88
2018-05-16T17:04:16.574Z,54.51
2018-05-16T17:06:47.552Z,54.92
2018-05-16T17:09:18.607Z,55.09
2018-05-16T17:11:49.590Z,55.59
2018-05-16T17:14:20.667Z,55.56
2018-05-16T17:16:51.751Z,55.39
2018-05-16T17:19:22.803Z,55.56
2018-05-16T17:21:53.838Z,55.52
2018-05-16T17:24:24.838Z,55.76
2018-05-16T17:26:55.978Z,55.97
2018-05-16T17:29:26.916Z,55.95
2018-05-16T17:31:57.929Z,55.80
2018-05-16T17:34:28.894Z,56.18
2018-05-16T17:37:00.067Z,56.60
2018-05-16T17:39:31.111Z,56.66
2018-05-16T17:42:02.142Z,56.76
2018-05-16T17:44:33.170Z,56.33
2018-05-16T17:47:04.226Z,56.01
2018-05-16T17:49:35.210Z,56.23
2018-05-16T17:52:06.350Z,56.83
2018-05-16T17:54:37.395Z,57.18
2018-05-16T17:57:08.530Z,57.32
2018-05-16T17:59:39.526Z,57.44
2018-05-16T18:02:10.571Z,57.76
2018-05-16T18:04:41.558Z,57.99
2018-05-16T18:07:12.637Z,58.34
2018-05-16T18:09:43.689Z,58.66
2018-05-16T18:12:14.708Z,58.86
2018-05-16T18:17:51.279Z,59.20
2018-05-16T18:20:22.288Z,59.07
2018-05-16T18:22:53.353Z,59.12
2018-05-16T18:25:24.358Z,59.05
2018-05-16T18:27:55.469Z,59.23
2018-05-16T18:30:26.444Z,59.41
2018-05-16T18:32:57.453Z,59.68
2018-05-16T18:35:28.389Z,60.21
2018-05-16T18:37:59.384Z,60.43
2018-05-16T18:40:30.372Z,60.30
2018-05-16T18:43:03.193Z,60.20
2018-05-16T18:45:34.308Z,60.29
2018-05-16T18:48:05.297Z,60.31
2018-05-16T18:50:36.320Z,60.68
2018-05-16T18:53:07.294Z,60.97
2018-05-16T18:55:38.384Z,61.14
2018-05-16T18:58:09.386Z,61.35
2018-05-16T19:00:40.439Z,61.49
2018-05-16T19:03:11.465Z,61.56
2018-05-16T19:05:42.491Z,61.77
2018-05-16T19:08:13.546Z,62.10
2018-05-16T19:10:44.540Z,62.43
2018-05-16T19:13:15.550Z,63.15
2018-05-16T19:15:46.550Z,63.56
2018-05-16T19:18:17.568Z,63.91
2018-05-16T19:20:48.577Z,63.85
2018-05-16T19:23:19.576Z,63.80
2018-05-16T19:25:50.588Z,63.98
2018-05-16T19:28:21.610Z,64.28
2018-05-16T19:30:52.674Z,64.47
2018-05-16T19:33:23.687Z,64.64
2018-05-16T19:35:54.731Z,64.88
2018-05-16T19:38:25.759Z,65.16
2018-05-16T19:40:56.771Z,65.12
2018-05-16T19:43:27.812Z,65.07
2018-05-16T19:45:58.862Z,65.53
2018-05-16T19:48:29.867Z,65.59
2018-05-16T19:51:00.891Z,65.76
2018-05-16T19:53:31.918Z,65.92
2018-05-16T19:56:02.919Z,66.14
2018-05-16T19:58:34.024Z,66.03
2018-05-16T20:01:04.935Z,66.18
2018-05-16T20:03:35.936Z,66.24
2018-05-16T20:06:06.939Z,66.54
2018-05-16T20:08:38.016Z,66.71
2018-05-16T20:11:09.073Z,66.93
2018-05-16T20:13:40.102Z,67.36
2018-05-16T20:16:11.110Z,67.29
2018-05-16T20:18:42.165Z,67.01
2018-05-16T20:21:13.193Z,67.13
2018-05-16T20:23:44.203Z,67.06
2018-05-16T20:26:15.231Z,67.06
2018-05-16T20:28:46.227Z,67.32
2018-05-16T20:31:17.250Z,67.46
2018-05-16T20:33:48.286Z,67.80
2018-05-16T20:36:19.378Z,67.63
2018-05-16T20:38:50.371Z,67.61
2018-05-16T20:41:21.417Z,67.76
2018-05-16T20:43:52.433Z,67.96
2018-05-16T20:46:23.434Z,67.98
2018-05-16T20:48:54.534Z,68.24
2018-05-16T20:51:25.553Z,68.25
2018-05-16T20:53:56.611Z,68.17
2018-05-16T20:56:27.591Z,68.05
2018-05-16T20:58:58.690Z,68.04
2018-05-16T21:01:29.686Z,67.86
2018-05-16T21:04:00.781Z,67.79
2018-05-16T21:06:31.847Z,67.59
2018-05-16T21:09:02.943Z,67.53
2018-05-16T21:11:33.986Z,67.52
2018-05-16T21:14:04.971Z,67.77
2018-05-16T21:16:35.930Z,67.91
2018-05-16T21:19:06.925Z,68.08
2018-05-16T21:21:37.924Z,68.09
2018-05-16T21:24:08.928Z,68.27
2018-05-16T21:26:39.906Z,68.29
2018-05-16T21:29:10.971Z,68.10
2018-05-16T21:31:41.946Z,67.75
2018-05-16T21:34:12.983Z,67.68
2018-05-16T21:36:43.969Z,67.63
2018-05-16T21:39:15.011Z,67.72
2018-05-16T21:41:46.011Z,67.60
2018-05-16T21:44:17.001Z,67.52
2018-05-16T21:46:47.969Z,67.35
2018-05-16T21:49:18.957Z,67.17
2018-05-16T21:51:49.959Z,67.25
2018-05-16T21:54:20.951Z,67.08
2018-05-16T21:56:51.934Z,66.92
2018-05-16T21:59:22.938Z,66.94
2018-05-16T22:01:53.914Z,66.99
2018-05-16T22:04:24.951Z,67.08
2018-05-16T22:06:55.927Z,67.31
2018-05-16T22:09:26.913Z,67.29
2018-05-16T22:11:57.913Z,67.28
2018-05-16T22:14:28.902Z,67.45
2018-05-16T22:16:59.953Z,67.40
2018-05-16T22:19:30.954Z,67.53
2018-05-16T22:22:01.970Z,67.48
2018-05-16T22:24:33.011Z,67.72
2018-05-16T22:27:04.040Z,67.96
2018-05-16T22:29:35.032Z,67.71
2018-05-16T22:32:12.035Z,68.08
2018-05-16T22:34:49.136Z,69.21
2018-05-16T22:37:26.185Z,70.21
2018-05-16T22:40:03.355Z,70.88
2018-05-16T22:42:34.286Z,70.75
2018-05-16T22:45:08.140Z,70.40
2018-05-16T22:47:39.151Z,69.97
2018-05-16T22:50:10.190Z,69.54
2018-05-16T22:52:41.175Z,69.43
2018-05-16T22:55:12.187Z,69.64
2018-05-16T22:57:43.220Z,69.47
2018-05-16T23:00:17.145Z,69.43
2018-05-16T23:02:48.155Z,69.38
2018-05-16T23:05:19.121Z,69.34
2018-05-16T23:07:50.140Z,69.24
2018-05-16T23:10:21.124Z,68.94
2018-05-16T23:12:52.139Z,68.64
2018-05-16T23:15:23.128Z,68.56
2018-05-16T23:17:54.248Z,68.45
2018-05-16T23:20:25.230Z,68.34
2018-05-16T23:22:56.222Z,68.18
2018-05-16T23:25:27.192Z,68.14
2018-05-16T23:27:58.201Z,68.20
2018-05-16T23:30:29.157Z,68.22
2018-05-16T23:33:00.222Z,68.05
2018-05-16T23:35:31.216Z,68.04
2018-05-16T23:38:02.200Z,68.21
2018-05-16T23:40:33.184Z,68.21
2018-05-16T23:43:04.167Z,68.07
2018-05-16T23:45:35.134Z,67.96
2018-05-16T23:48:06.181Z,67.81
2018-05-16T23:50:37.136Z,67.78
2018-05-16T23:53:08.144Z,67.78
2018-05-16T23:55:39.152Z,67.59
2018-05-16T23:58:10.187Z,67.43
